Time;durP1;ratioP1;P1;durP2;ratioP2;P2;SDS_P1;SDS_P2;PMS_P1;PMS_P2;Temp;Humidity;BMP_temperature;BMP_pressure;BME280_temperature;BME280_humidity;BME280_pressure;Samples;Min_cycle;Max_cycle;Signal;HPM_P1;HPM_P2
2024/01/31 00:00:09;;;;;;;1.07;1.07;;;;;;;0.03;100.00;102235.44;5093042;28;20209;-73
2024/01/31 00:02:35;;;;;;;1.93;1.83;;;;;;;0.43;100.00;102340.31;5093175;28;20226;-73
2024/01/31 00:05:02;;;;;;;0.80;0.80;;;;;;;0.29;100.00;102317.75;5093581;28;20202;-73
2024/01/31 00:07:29;;;;;;;1.00;1.00;;;;;;;0.34;100.00;102336.03;5093880;28;20249;-73
2024/01/31 00:09:57;;;;;;;1.47;1.47;;;;;;;0.35;100.00;102341.31;5093123;28;20233;-73
2024/01/31 00:12:27;;;;;;;1.37;1.37;;;;;;;0.26;100.00;102332.78;5093569;28;20221;-73
2024/01/31 00:14:54;;;;;;;1.10;1.10;;;;;;;0.00;100.00;102281.06;5093179;28;20597;-73
2024/01/31 00:17:21;;;;;;;1.10;1.10;;;;;;;0.20;100.00;102298.19;5093710;28;20193;-73
2024/01/31 00:19:47;;;;;;;0.70;0.70;;;;;;;-0.24;100.00;102208.31;5093234;28;20198;-73
2024/01/31 00:22:14;;;;;;;1.00;1.00;;;;;;;0.29;100.00;102296.44;5092918;28;20209;-73
2024/01/31 00:24:41;;;;;;;5.30;2.80;;;;;;;0.50;100.00;102309.50;5092948;28;20209;-73
2024/01/31 00:27:09;;;;;;;2.00;1.87;;;;;;;0.66;100.00;102327.09;5092719;28;20209;-73
2024/01/31 00:29:36;;;;;;;1.43;1.43;;;;;;;0.35;100.00;102257.09;5092862;28;20194;-74
2024/01/31 00:32:03;;;;;;;1.10;1.10;;;;;;;0.68;100.00;102325.56;5092450;28;20221;-73
2024/01/31 00:34:31;;;;;;;1.57;1.47;;;;;;;0.73;100.00;102326.00;5092601;28;20674;-73
2024/01/31 00:36:58;;;;;;;2.23;1.70;;;;;;;0.41;100.00;102262.75;5092467;28;20229;-73
2024/01/31 00:39:28;;;;;;;1.37;1.37;;;;;;;0.36;100.00;102256.31;5092239;28;20202;-73
2024/01/31 00:41:55;;;;;;;1.17;1.17;;;;;;;0.73;100.00;102323.44;5091885;28;20208;-75
2024/01/31 00:44:23;;;;;;;1.27;1.27;;;;;;;0.82;100.00;102319.19;5091841;28;20238;-73
2024/01/31 00:46:50;;;;;;;0.90;0.90;;;;;;;0.82;100.00;102319.19;5092808;28;20206;-73
2024/01/31 00:49:17;;;;;;;1.07;1.07;;;;;;;0.87;100.00;102317.91;5092103;28;20580;-74
2024/01/31 00:51:44;;;;;;;0.90;0.90;;;;;;;0.60;100.00;102250.00;5092457;28;20226;-73
2024/01/31 00:54:12;;;;;;;1.97;1.87;;;;;;;0.23;100.00;102194.75;5092269;28;20233;-73
2024/01/31 00:56:39;;;;;;;1.23;1.23;;;;;;;0.91;100.00;102305.56;5092444;28;20194;-74
2024/01/31 00:59:05;;;;;;;0.80;0.80;;;;;;;0.93;100.00;102314.25;5090376;28;20209;-74
2024/01/31 01:01:34;;;;;;;0.97;0.97;;;;;;;0.98;100.00;102310.44;5092157;28;20194;-73
2024/01/31 01:04:00;;;;;;;0.80;0.80;;;;;;;0.87;100.00;102310.25;5091184;28;20233;-73
2024/01/31 01:06:27;;;;;;;1.13;1.13;;;;;;;0.83;100.00;102310.72;5091637;28;20290;-73
2024/01/31 01:08:54;;;;;;;0.80;0.80;;;;;;;0.72;100.00;102275.69;5091631;28;20209;-73
2024/01/31 01:11:21;;;;;;;1.00;1.00;;;;;;;0.83;100.00;102301.41;5091608;28;20229;-75
2024/01/31 01:13:49;;;;;;;1.00;1.00;;;;;;;0.59;100.00;102247.28;5091796;28;20210;-73
2024/01/31 01:16:15;;;;;;;1.03;1.03;;;;;;;0.87;100.00;102294.94;5091892;28;20206;-73
2024/01/31 01:18:43;;;;;;;1.27;1.27;;;;;;;0.97;100.00;102295.88;5091730;28;20198;-73
2024/01/31 01:21:10;;;;;;;9.10;1.20;;;;;;;0.78;100.00;102276.25;5091348;28;20202;-73
2024/01/31 01:23:37;;;;;;;1.00;1.00;;;;;;;0.72;100.00;102275.69;5091613;28;20206;-73
2024/01/31 01:26:04;;;;;;;0.80;0.80;;;;;;;-0.03;99.96;102127.78;5072687;28;20209;-73
2024/01/31 01:28:31;;;;;;;0.70;0.70;;;;;;;0.80;97.29;102254.28;5091606;28;20209;-73
2024/01/31 01:30:58;;;;;;;0.97;0.97;;;;;;;0.97;95.24;102289.88;5091470;28;20233;-73
2024/01/31 01:33:24;;;;;;;1.00;1.00;;;;;;;1.08;93.40;102290.81;5091788;28;20202;-73
2024/01/31 01:35:52;;;;;;;2.03;1.40;;;;;;;0.61;92.58;102176.88;5090730;28;20213;-73
2024/01/31 01:38:19;;;;;;;0.80;0.80;;;;;;;1.19;92.86;102268.00;5075998;28;20595;-73
2024/01/31 01:40:46;;;;;;;0.80;0.80;;;;;;;1.18;92.87;102286.63;5072458;28;20201;-73
2024/01/31 01:43:17;;;;;;;0.90;0.90;;;;;;;1.11;94.16;102286.88;5091585;28;20566;-73
2024/01/31 01:45:44;;;;;;;1.60;1.50;;;;;;;0.96;94.00;102288.09;5091420;28;20251;-73
2024/01/31 01:48:11;;;;;;;1.23;1.23;;;;;;;0.93;94.35;102283.59;5092020;28;20202;-73
2024/01/31 01:50:39;;;;;;;1.07;1.07;;;;;;;0.97;95.63;102279.66;5091465;28;20198;-73
2024/01/31 01:53:08;;;;;;;0.77;0.77;;;;;;;1.00;96.97;102285.03;5091228;28;20300;-73
2024/01/31 01:55:35;;;;;;;1.10;1.10;;;;;;;0.57;97.55;102223.31;5090964;28;20670;-73
2024/01/31 01:58:03;;;;;;;1.50;1.40;;;;;;;0.75;98.17;102271.75;5091138;28;20201;-73
2024/01/31 02:00:32;;;;;;;1.23;1.23;;;;;;;0.73;98.90;102272.38;5089702;28;20257;-73
2024/01/31 02:02:59;;;;;;;1.00;1.00;;;;;;;0.50;99.22;102220.19;5090870;28;20697;-73
2024/01/31 02:05:26;;;;;;;2.60;1.57;;;;;;;0.72;99.26;102258.72;5091164;28;20548;-75
2024/01/31 02:07:53;;;;;;;1.67;1.67;;;;;;;0.74;100.00;102264.88;5048017;28;20207;-72
2024/01/31 02:10:22;;;;;;;1.13;1.13;;;;;;;0.69;100.00;102257.56;5090658;28;20197;-73
2024/01/31 02:12:49;;;;;;;0.80;0.80;;;;;;;0.56;100.00;102234.25;5090531;28;20723;-73
2024/01/31 02:15:15;;;;;;;0.70;0.70;;;;;;;0.29;99.87;102187.66;5091142;28;20201;-72
2024/01/31 02:17:42;;;;;;;0.90;0.90;;;;;;;0.28;99.10;102172.22;5090962;28;20194;-72
2024/01/31 02:20:15;;;;;;;1.27;1.27;;;;;;;0.50;100.00;102207.41;5054990;28;20202;-72
2024/01/31 02:22:44;;;;;;;1.23;1.23;;;;;;;0.64;100.00;102228.19;5076725;28;20210;-72
2024/01/31 02:25:13;;;;;;;4.23;2.13;;;;;;;0.39;100.00;102202.16;5070657;28;20198;-72
2024/01/31 02:27:40;;;;;;;0.80;0.80;;;;;;;0.38;100.00;102211.44;5070377;28;20723;-73
2024/01/31 02:30:08;;;;;;;0.87;0.87;;;;;;;0.52;100.00;102245.84;5090033;28;20285;-73
2024/01/31 02:32:35;;;;;;;1.30;1.10;;;;;;;0.41;100.00;102254.19;5053655;28;20225;-73
2024/01/31 02:35:01;;;;;;;0.80;0.80;;;;;;;0.23;100.00;102239.78;5090590;28;20205;-73
2024/01/31 02:37:28;;;;;;;0.90;0.90;;;;;;;0.10;100.00;102222.50;5090365;28;20259;-73
2024/01/31 02:39:56;;;;;;;0.80;0.80;;;;;;;0.24;100.00;102236.47;5090261;28;20208;-73
2024/01/31 02:42:23;;;;;;;1.10;1.10;;;;;;;0.28;100.00;102238.56;5090672;28;20221;-72
2024/01/31 02:44:50;;;;;;;1.20;1.20;;;;;;;0.27;100.00;102237.66;5079776;28;20214;-72
2024/01/31 02:47:17;;;;;;;1.07;1.07;;;;;;;0.09;100.00;102190.09;5070340;28;20203;-72
2024/01/31 02:49:43;;;;;;;1.13;1.13;;;;;;;0.40;100.00;102231.97;5088456;28;20202;-72
2024/01/31 02:52:10;;;;;;;1.10;1.10;;;;;;;0.47;100.00;102224.13;5090151;28;20301;-72
2024/01/31 02:54:37;;;;;;;1.00;1.00;;;;;;;0.38;99.03;102225.84;5090780;28;20209;-72
2024/01/31 02:57:05;;;;;;;0.90;0.90;;;;;;;0.58;97.94;102225.06;5090322;28;20592;-72
2024/01/31 02:59:32;;;;;;;1.07;1.07;;;;;;;0.59;96.19;102207.34;5054701;28;20209;-73
2024/01/31 03:01:59;;;;;;;0.90;0.90;;;;;;;0.54;95.66;102210.25;5053387;28;20201;-72
2024/01/31 03:04:26;;;;;;;1.30;1.30;;;;;;;0.25;95.57;102177.06;5090100;28;20240;-72
2024/01/31 03:06:53;;;;;;;1.27;1.27;;;;;;;0.61;97.08;102240.69;5072981;28;20206;-72
2024/01/31 03:09:21;;;;;;;0.90;0.90;;;;;;;0.70;97.13;102233.81;5094276;28;20212;-73
2024/01/31 03:11:48;;;;;;;1.87;1.63;;;;;;;0.66;98.51;102229.19;5075672;28;20248;-73
2024/01/31 03:14:16;;;;;;;1.10;1.10;;;;;;;0.46;99.64;102204.47;5074010;28;20222;-72
2024/01/31 03:16:43;;;;;;;1.00;1.00;;;;;;;0.43;98.54;102192.31;5054974;28;20207;-72
2024/01/31 03:19:10;;;;;;;0.80;0.80;;;;;;;0.42;98.21;102200.75;5090664;28;20504;-74
2024/01/31 03:21:37;;;;;;;0.80;0.80;;;;;;;0.35;99.02;102180.56;5058196;28;20194;-73
2024/01/31 03:24:04;;;;;;;0.77;0.77;;;;;;;0.37;99.22;102203.66;5094349;28;20237;-72
2024/01/31 03:26:31;;;;;;;1.03;1.03;;;;;;;0.41;99.75;102219.38;5054543;28;20203;-72
2024/01/31 03:29:01;;;;;;;0.80;0.80;;;;;;;0.50;98.44;102215.06;5089293;28;20213;-72
2024/01/31 03:31:29;;;;;;;1.33;1.33;;;;;;;0.48;97.30;102203.84;5099402;28;20205;-72
2024/01/31 03:33:56;;;;;;;1.80;1.23;;;;;;;0.30;96.90;102161.38;5096141;28;20201;-74
2024/01/31 03:36:22;;;;;;;1.60;1.50;;;;;;;0.20;96.95;102174.09;5088328;28;20214;-72
2024/01/31 03:38:49;;;;;;;3.47;2.13;;;;;;;0.36;97.24;102206.94;5090982;28;20209;-72
2024/01/31 03:41:16;;;;;;;1.00;1.00;;;;;;;0.26;96.99;102178.84;5095509;28;20203;-72
2024/01/31 03:43:43;;;;;;;1.57;1.57;;;;;;;0.49;96.18;102210.75;5094845;28;20206;-73
2024/01/31 03:46:10;;;;;;;0.97;0.97;;;;;;;0.45;95.67;102200.13;5093864;28;20622;-73
2024/01/31 03:48:38;;;;;;;8.57;1.40;;;;;;;0.57;95.46;102213.97;5093492;28;20621;-74
2024/01/31 03:51:05;;;;;;;2.50;2.40;;;;;;;0.64;94.93;102213.78;5093740;28;20209;-73
2024/01/31 03:53:32;;;;;;;1.10;1.10;;;;;;;0.32;95.00;102180.25;5093627;28;20345;-73
2024/01/31 03:55:59;;;;;;;0.70;0.70;;;;;;;0.54;94.59;102210.25;5056376;28;20689;-74
2024/01/31 03:58:25;;;;;;;3.00;2.80;;;;;;;0.09;95.12;102133.97;5091059;28;20206;-73
2024/01/31 04:00:52;;;;;;;0.90;0.90;;;;;;;0.62;94.46;102206.72;5092784;28;20206;-73
2024/01/31 04:03:20;;;;;;;3.07;2.83;;;;;;;0.60;94.48;102208.25;5093981;28;20244;-74
2024/01/31 04:05:49;;;;;;;8.05;3.15;;;;;;;0.77;100.00;102203.88;5092682;28;20472;-73
2024/01/31 04:08:16;;;;;;;2.27;2.17;;;;;;;0.60;97.54;102182.72;5093658;28;20230;-74
2024/01/31 04:10:43;;;;;;;1.10;1.10;;;;;;;0.72;96.09;102215.31;5093363;28;20202;-74
2024/01/31 04:13:10;;;;;;;0.97;0.97;;;;;;;0.08;94.53;102106.69;5057801;28;20226;-74
2024/01/31 04:15:37;;;;;;;0.80;0.80;;;;;;;0.53;95.56;102209.38;5093205;28;20202;-75
2024/01/31 04:18:04;;;;;;;1.90;1.60;;;;;;;1.08;100.00;102207.41;5091381;28;20443;-74
2024/01/31 04:20:31;;;;;;;1.27;1.27;;;;;;;0.44;100.00;102120.13;5093274;28;20240;-74
2024/01/31 04:22:59;;;;;;;1.00;1.00;;;;;;;0.69;100.00;102220.16;5074102;28;20202;-74
2024/01/31 04:25:26;;;;;;;0.97;0.97;;;;;;;0.37;100.00;102208.75;5091746;28;20233;-73
2024/01/31 04:27:53;;;;;;;0.80;0.80;;;;;;;0.13;100.00;102210.00;5092711;28;20673;-74
2024/01/31 04:30:20;;;;;;;1.03;1.03;;;;;;;0.04;100.00;102216.81;5093042;28;20661;-71
2024/01/31 04:32:47;;;;;;;1.07;1.07;;;;;;;-0.13;100.00;102216.94;5092737;28;20733;-75
2024/01/31 04:35:13;;;;;;;1.03;1.03;;;;;;;-0.22;100.00;102208.47;5093022;28;20218;-74
2024/01/31 04:37:40;;;;;;;1.20;1.20;;;;;;;-0.44;100.00;102161.38;5088574;28;20195;-74
2024/01/31 04:40:09;;;;;;;1.10;1.10;;;;;;;-0.16;100.00;102201.38;5072554;28;20209;-74
2024/01/31 04:42:36;;;;;;;1.27;1.27;;;;;;;-0.01;100.00;102200.22;5072394;28;20217;-73
2024/01/31 04:45:04;;;;;;;1.00;1.00;;;;;;;-0.06;100.00;102184.50;5072735;28;20207;-74
2024/01/31 04:47:30;;;;;;;1.20;1.20;;;;;;;0.13;100.00;102194.72;5072546;28;20202;-74
2024/01/31 04:49:58;;;;;;;0.80;0.80;;;;;;;0.30;100.00;102186.91;5083440;28;20202;-74
2024/01/31 04:52:25;;;;;;;1.20;1.20;;;;;;;-0.19;99.93;102089.84;5091427;28;20218;-74
2024/01/31 04:54:53;;;;;;;1.33;1.33;;;;;;;-0.15;99.56;102091.91;5092823;28;20251;-74
2024/01/31 04:57:21;;;;;;;1.83;1.80;;;;;;;0.46;99.50;102195.13;5091828;28;20198;-75
2024/01/31 04:59:47;;;;;;;0.80;0.80;;;;;;;0.11;99.41;102134.13;5092112;28;20194;-75
2024/01/31 05:02:14;;;;;;;0.80;0.80;;;;;;;0.62;100.00;102206.72;5093185;28;20237;-75
2024/01/31 05:04:41;;;;;;;0.87;0.87;;;;;;;0.71;99.50;102208.44;5092276;28;20213;-76
2024/01/31 05:07:08;;;;;;;1.00;1.00;;;;;;;0.50;99.34;102171.69;5092305;28;20201;-76
2024/01/31 05:09:35;;;;;;;2.27;2.10;;;;;;;0.37;100.00;102163.72;5091995;28;20201;-76
2024/01/31 05:12:02;;;;;;;0.93;0.93;;;;;;;0.61;100.00;102210.06;5091511;28;20701;-74
2024/01/31 05:14:31;;;;;;;2.80;2.60;;;;;;;0.44;100.00;102181.38;5091833;28;20198;-74
2024/01/31 05:16:58;;;;;;;2.80;2.70;;;;;;;0.42;100.00;102216.06;5091560;28;20205;-74
2024/01/31 05:19:25;;;;;;;1.97;1.93;;;;;;;-0.14;100.00;102138.66;5091527;28;20206;-75
2024/01/31 05:21:53;;;;;;;9.10;3.63;;;;;;;0.16;100.00;102217.94;5091444;28;20197;-75
2024/01/31 05:24:20;;;;;;;3.10;3.00;;;;;;;-0.30;100.00;102143.13;5091412;28;20228;-76
2024/01/31 05:26:47;;;;;;;1.93;1.93;;;;;;;-0.42;100.00;102114.88;5091872;28;20230;-74
2024/01/31 05:29:15;;;;;;;2.03;1.73;;;;;;;0.23;100.00;102220.28;5091121;28;20202;-75
2024/01/31 05:31:43;;;;;;;2.60;2.50;;;;;;;-0.09;100.00;102168.03;5055896;28;20198;-75
2024/01/31 05:34:10;;;;;;;6.33;4.67;;;;;;;-0.68;100.00;102074.28;5091259;28;20229;-75
2024/01/31 05:36:37;;;;;;;3.57;3.33;;;;;;;-0.09;100.00;102199.50;5091271;28;20237;-74
2024/01/31 05:39:04;;;;;;;1.90;1.90;;;;;;;-0.65;100.00;102105.16;5091185;28;20202;-75
2024/01/31 05:41:31;;;;;;;2.23;2.13;;;;;;;-0.20;100.00;102158.50;5091833;28;20660;-76
2024/01/31 05:43:58;;;;;;;1.63;1.63;;;;;;;0.22;100.00;102218.47;5091857;28;20198;-76
2024/01/31 05:46:24;;;;;;;2.83;2.73;;;;;;;0.27;100.00;102212.13;5092564;28;20209;-76
2024/01/31 05:48:53;;;;;;;17.67;2.47;;;;;;;0.28;100.00;102206.28;5092262;28;20209;-77
2024/01/31 05:51:19;;;;;;;1.17;1.17;;;;;;;0.33;100.00;102206.69;5095626;28;20638;-76
2024/01/31 05:53:46;;;;;;;2.83;2.37;;;;;;;0.32;100.00;102207.47;5095924;28;20253;-78
2024/01/31 05:56:15;;;;;;;4.53;4.17;;;;;;;0.33;100.00;102225.44;5091658;28;20193;-75
2024/01/31 05:58:42;;;;;;;0.90;0.90;;;;;;;0.35;100.00;102225.59;5068826;28;20201;-74
2024/01/31 06:01:09;;;;;;;1.63;1.53;;;;;;;0.32;100.00;102226.19;5070807;28;20242;-75
2024/01/31 06:03:36;;;;;;;3.20;2.97;;;;;;;0.22;100.00;102210.81;5071011;28;20238;-75
2024/01/31 06:06:05;;;;;;;1.80;1.73;;;;;;;0.43;100.00;102220.41;5075019;28;20209;-76
2024/01/31 06:08:33;;;;;;;2.77;2.17;;;;;;;0.34;100.00;102214.47;5091002;28;20190;-75
2024/01/31 06:11:02;;;;;;;3.17;2.93;;;;;;;0.25;100.00;102187.25;5091129;28;20198;-72
2024/01/31 06:13:29;;;;;;;7.00;4.97;;;;;;;0.33;100.00;102197.38;5087803;28;20228;-73
2024/01/31 06:15:56;;;;;;;11.53;10.57;;;;;;;0.46;100.00;102218.09;5083979;28;20205;-73
2024/01/31 06:18:23;;;;;;;6.23;5.80;;;;;;;0.36;100.00;102182.34;5053777;28;20206;-73
2024/01/31 06:20:50;;;;;;;43.77;28.37;;;;;;;0.52;100.00;102201.56;5089974;28;20229;-71
2024/01/31 06:23:18;;;;;;;19.80;12.97;;;;;;;0.86;100.00;102212.31;5076929;28;20202;-72
2024/01/31 06:25:46;;;;;;;15.93;11.50;;;;;;;0.81;100.00;102207.59;5059031;28;20210;-72
2024/01/31 06:28:12;;;;;;;8.23;5.53;;;;;;;0.78;100.00;102199.66;5084496;28;20194;-74
2024/01/31 06:30:44;;;;;;;2.90;2.80;;;;;;;0.90;100.00;102218.59;5081465;28;20201;-72
2024/01/31 06:33:10;;;;;;;3.30;3.10;;;;;;;0.89;100.00;102194.69;5090113;28;20230;-72
2024/01/31 06:35:41;;;;;;;1.77;1.67;;;;;;;1.02;100.00;102217.13;5090300;28;20572;-73
2024/01/31 06:38:07;;;;;;;5.07;4.67;;;;;;;0.87;100.00;102218.31;5089869;28;20206;-73
2024/01/31 06:40:36;;;;;;;2.73;2.53;;;;;;;0.96;100.00;102216.59;5089672;28;20217;-72
2024/01/31 06:43:03;;;;;;;1.17;1.17;;;;;;;0.98;100.00;102215.94;5090498;28;20289;-73
2024/01/31 06:45:30;;;;;;;1.40;1.40;;;;;;;0.82;100.00;102201.72;5090579;28;20198;-73
2024/01/31 06:47:57;;;;;;;2.10;2.00;;;;;;;0.80;100.00;102193.00;5090304;28;20198;-73
2024/01/31 06:50:23;;;;;;;2.03;1.93;;;;;;;0.76;100.00;102199.50;5090588;28;20198;-73
2024/01/31 06:52:50;;;;;;;1.17;1.17;;;;;;;0.90;100.00;102223.69;5090259;28;20222;-73
2024/01/31 06:55:17;;;;;;;0.80;0.80;;;;;;;0.97;100.00;102226.03;5090314;28;20190;-72
2024/01/31 06:57:45;;;;;;;1.30;1.20;;;;;;;1.04;100.00;102230.00;5080459;28;20285;-72
2024/01/31 07:00:15;;;;;;;1.13;1.13;;;;;;;1.04;100.00;102230.00;5083992;28;20202;-73
2024/01/31 07:02:42;;;;;;;1.00;1.00;;;;;;;1.07;100.00;102228.59;5078146;28;20793;-73
2024/01/31 07:05:08;;;;;;;4.43;1.47;;;;;;;1.09;100.00;102218.53;5075783;28;20225;-72
2024/01/31 07:07:35;;;;;;;1.67;1.67;;;;;;;1.19;100.00;102224.56;5054887;28;20198;-74
2024/01/31 07:10:02;;;;;;;0.97;0.97;;;;;;;1.25;100.00;102216.56;5090167;28;20202;-72
2024/01/31 07:12:29;;;;;;;1.10;1.10;;;;;;;1.34;100.00;102222.44;5089685;28;20209;-73
2024/01/31 07:14:57;;;;;;;1.93;1.83;;;;;;;1.39;100.00;102216.94;5090136;28;20271;-75
2024/01/31 07:17:24;;;;;;;3.80;2.07;;;;;;;1.34;100.00;102218.22;5089772;28;20304;-74
2024/01/31 07:19:51;;;;;;;1.33;1.33;;;;;;;1.20;100.00;102177.84;5090049;28;20206;-74
2024/01/31 07:22:17;;;;;;;6.67;1.97;;;;;;;1.53;100.00;102215.59;5075905;28;20285;-73
2024/01/31 07:24:45;;;;;;;0.97;0.97;;;;;;;1.65;100.00;102205.47;5090080;28;20719;-76
2024/01/31 07:27:12;;;;;;;3.50;1.87;;;;;;;1.68;100.00;102200.63;5089930;28;20202;-77
2024/01/31 07:29:38;;;;;;;1.40;1.40;;;;;;;1.73;100.00;102200.25;5085387;28;20586;-77
2024/01/31 07:32:07;;;;;;;1.17;1.17;;;;;;;1.84;100.00;102190.94;5081175;28;20205;-75
2024/01/31 07:34:34;;;;;;;1.50;1.40;;;;;;;1.86;100.00;102207.28;5089715;28;20218;-74
2024/01/31 07:37:02;;;;;;;1.57;1.57;;;;;;;1.84;100.00;102181.59;5079856;28;20285;-74
2024/01/31 07:39:29;;;;;;;1.30;1.30;;;;;;;2.19;100.00;102187.06;5083724;28;20665;-74
2024/01/31 07:41:56;;;;;;;1.30;1.30;;;;;;;2.23;100.00;102186.53;5042711;28;20259;-74
2024/01/31 07:44:23;;;;;;;3.83;3.43;;;;;;;2.32;100.00;102188.97;5089597;28;20289;-71
2024/01/31 07:46:49;;;;;;;5.40;2.00;;;;;;;2.31;100.00;102190.63;5089752;28;20198;-72
2024/01/31 07:49:18;;;;;;;3.20;2.60;;;;;;;2.43;100.00;102175.34;5089760;28;20206;-72
2024/01/31 07:51:45;;;;;;;2.00;1.90;;;;;;;2.56;100.00;102177.25;5090199;28;20289;-73
2024/01/31 07:54:12;;;;;;;1.07;1.07;;;;;;;2.64;100.00;102182.19;5054311;28;20226;-73
2024/01/31 07:56:39;;;;;;;0.97;0.97;;;;;;;2.70;100.00;102181.78;5057542;28;20194;-73
2024/01/31 07:59:06;;;;;;;3.27;2.97;;;;;;;2.74;100.00;102173.59;5057707;28;20228;-73
2024/01/31 08:01:33;;;;;;;2.40;2.20;;;;;;;2.79;100.00;102175.72;5093026;28;20233;-73
2024/01/31 08:04:00;;;;;;;1.80;1.77;;;;;;;2.63;100.00;102175.28;5093326;28;20329;-74
2024/01/31 08:06:28;;;;;;;1.30;1.30;;;;;;;2.68;100.00;102173.97;5092987;28;20224;-72
2024/01/31 08:08:55;;;;;;;2.20;2.13;;;;;;;2.59;100.00;102170.69;5079085;28;20206;-74
2024/01/31 08:11:22;;;;;;;1.77;1.67;;;;;;;2.44;100.00;102174.56;5092839;28;20209;-73
2024/01/31 08:13:49;;;;;;;10.90;2.07;;;;;;;2.57;100.00;102148.31;5088076;28;20226;-72
2024/01/31 08:16:15;;;;;;;1.53;1.43;;;;;;;2.71;100.00;102117.88;5083602;28;20210;-72
2024/01/31 08:18:42;;;;;;;1.67;1.67;;;;;;;2.93;100.00;102156.31;5078427;28;20690;-74
2024/01/31 08:21:09;;;;;;;1.93;1.93;;;;;;;2.99;100.00;102161.94;5088640;28;20625;-72
2024/01/31 08:23:38;;;;;;;4.30;2.17;;;;;;;3.04;100.00;102150.38;5092463;28;20198;-72
2024/01/31 08:26:06;;;;;;;1.93;1.87;;;;;;;2.94;100.00;102123.13;5092778;28;20194;-72
2024/01/31 08:28:32;;;;;;;7.33;2.80;;;;;;;3.14;100.00;102152.00;5092686;28;20198;-73
2024/01/31 08:30:59;;;;;;;4.63;3.27;;;;;;;3.18;100.00;102149.75;5071760;28;20214;-72
2024/01/31 08:33:26;;;;;;;2.43;2.33;;;;;;;3.30;100.00;102148.16;5080511;28;20218;-73
2024/01/31 08:35:53;;;;;;;1.57;1.57;;;;;;;3.29;100.00;102156.63;5042441;28;20207;-73
2024/01/31 08:38:19;;;;;;;2.93;2.73;;;;;;;3.33;100.00;102157.75;5078570;28;20201;-72
2024/01/31 08:40:47;;;;;;;1.80;1.77;;;;;;;3.31;100.00;102152.53;5073604;28;20634;-73
2024/01/31 08:43:14;;;;;;;2.07;2.00;;;;;;;3.35;98.49;102164.78;5092074;28;20307;-72
2024/01/31 08:45:41;;;;;;;1.57;1.50;;;;;;;3.41;94.36;102155.00;5092221;28;20198;-72
2024/01/31 08:48:08;;;;;;;2.40;2.20;;;;;;;3.24;94.88;102114.38;5092174;28;20653;-73
2024/01/31 08:50:35;;;;;;;2.20;2.10;;;;;;;3.38;94.64;102143.63;5092247;28;20202;-73
2024/01/31 08:53:02;;;;;;;1.60;1.50;;;;;;;3.44;93.99;102154.34;5092348;28;20224;-73
2024/01/31 08:55:29;;;;;;;1.80;1.80;;;;;;;3.62;94.28;102147.16;5092124;28;20198;-71
2024/01/31 08:57:57;;;;;;;1.20;1.20;;;;;;;3.63;96.79;102136.13;5091965;28;20197;-72
2024/01/31 09:00:24;;;;;;;5.43;2.30;;;;;;;3.39;95.95;102077.06;5092130;28;20209;-73
2024/01/31 09:02:50;;;;;;;2.47;2.27;;;;;;;3.83;96.46;102147.09;5079620;28;20234;-73
2024/01/31 09:05:18;;;;;;;4.53;2.57;;;;;;;3.81;96.88;102123.00;5071339;28;20203;-73
2024/01/31 09:07:44;;;;;;;1.97;1.87;;;;;;;3.90;95.67;102149.34;5071946;28;20263;-73
2024/01/31 09:10:11;;;;;;;2.40;2.27;;;;;;;3.45;96.55;102087.81;5071697;28;20195;-73
2024/01/31 09:12:38;;;;;;;4.20;3.90;;;;;;;3.94;96.05;102124.78;5071881;28;20199;-73
2024/01/31 09:15:08;;;;;;;2.23;2.13;;;;;;;4.21;94.94;102136.22;5036688;28;20234;-73
2024/01/31 09:17:34;;;;;;;2.23;2.13;;;;;;;4.04;93.42;102105.81;5071761;28;20682;-73
2024/01/31 09:20:01;;;;;;;7.50;3.73;;;;;;;4.21;92.09;102126.81;5071612;28;20651;-72
2024/01/31 09:22:28;;;;;;;2.00;2.00;;;;;;;4.20;91.10;102126.72;5036337;28;20272;-73
2024/01/31 09:24:55;;;;;;;2.40;2.00;;;;;;;4.27;90.81;102117.00;5071510;28;20585;-72
2024/01/31 09:27:22;;;;;;;1.63;1.50;;;;;;;4.44;88.77;102131.94;5071431;28;20214;-73
2024/01/31 09:29:48;;;;;;;1.43;1.43;;;;;;;4.44;88.50;102110.50;5071502;28;20198;-73
2024/01/31 09:32:17;;;;;;;2.67;1.87;;;;;;;4.42;89.80;102128.34;5071229;28;20689;-73
2024/01/31 09:34:43;;;;;;;1.93;1.83;;;;;;;4.28;89.20;102123.03;5071307;28;20230;-73
2024/01/31 09:37:10;;;;;;;1.40;1.40;;;;;;;4.39;89.38;102117.88;5071534;28;20219;-72
2024/01/31 09:39:37;;;;;;;1.77;1.77;;;;;;;4.42;87.85;102118.09;5071333;28;20609;-73
2024/01/31 09:42:04;;;;;;;2.10;2.00;;;;;;;4.47;87.50;102097.88;5071088;28;20281;-72
2024/01/31 09:44:31;;;;;;;6.70;2.37;;;;;;;4.62;87.06;102103.22;5071173;28;20195;-73
2024/01/31 09:47:00;;;;;;;2.43;2.33;;;;;;;4.24;87.58;102008.97;5052453;28;20585;-73
2024/01/31 09:49:28;;;;;;;3.73;3.33;;;;;;;4.90;87.02;102099.22;5071001;28;20210;-72
2024/01/31 09:51:59;;;;;;;2.03;2.00;;;;;;;4.88;86.46;102059.69;5071249;28;20198;-72
2024/01/31 09:54:26;;;;;;;1.73;1.70;;;;;;;5.09;86.60;102083.41;5070918;28;20325;-72
2024/01/31 09:56:53;;;;;;;3.40;2.47;;;;;;;5.20;85.53;102088.50;5073535;28;20225;-72
2024/01/31 09:59:19;;;;;;;1.93;1.90;;;;;;;5.09;84.32;102065.41;5091116;28;20206;-73
2024/01/31 10:01:46;;;;;;;0.97;0.97;;;;;;;5.22;84.55;102066.34;5091021;28;20324;-73
2024/01/31 10:04:14;;;;;;;0.83;0.83;;;;;;;5.16;85.27;102078.81;5083648;28;20272;-73
2024/01/31 10:06:43;;;;;;;1.50;1.50;;;;;;;5.26;82.62;102075.16;5091208;28;20198;-73
2024/01/31 10:09:10;;;;;;;1.30;1.30;;;;;;;5.29;83.06;102065.97;5092150;28;20199;-73
2024/01/31 10:11:37;;;;;;;1.40;1.33;;;;;;;5.26;82.37;102060.63;5077803;28;20199;-73
2024/01/31 10:14:04;;;;;;;1.30;1.30;;;;;;;5.27;84.30;102070.13;5087267;28;20222;-73
2024/01/31 10:16:31;;;;;;;4.60;2.27;;;;;;;5.40;82.56;102067.59;5085773;28;20689;-73
2024/01/31 10:18:58;;;;;;;1.47;1.20;;;;;;;5.22;81.46;102040.63;5093462;28;20791;-73
2024/01/31 10:21:25;;;;;;;1.13;1.13;;;;;;;5.38;80.36;102029.72;5091183;28;20213;-73
2024/01/31 10:24:02;;;;;;;1.30;1.30;;;;;;;5.70;78.95;102058.47;5040888;28;20237;-73
2024/01/31 10:26:29;;;;;;;1.37;1.37;;;;;;;5.20;78.81;101957.38;5079044;28;20202;-72
2024/01/31 10:28:58;;;;;;;2.03;1.77;;;;;;;5.61;79.87;102034.69;5084648;28;20199;-73
2024/01/31 10:31:25;;;;;;;1.87;1.77;;;;;;;5.66;79.27;102042.72;5052785;28;20215;-75
2024/01/31 10:33:52;;;;;;;1.90;1.90;;;;;;;5.73;81.11;102039.75;5087986;28;20226;-79
2024/01/31 10:36:20;;;;;;;1.67;1.57;;;;;;;5.90;78.79;102039.19;5094808;28;20639;-74
2024/01/31 10:38:47;;;;;;;1.43;1.43;;;;;;;5.95;76.66;102036.16;5076057;28;20237;-75
2024/01/31 10:41:19;;;;;;;1.50;1.50;;;;;;;5.91;75.45;102003.25;5093468;28;20213;-78
2024/01/31 10:43:48;;;;;;;1.03;1.03;;;;;;;4.73;76.02;101784.59;5090939;28;20202;-74
2024/01/31 10:46:15;;;;;;;1.10;1.10;;;;;;;6.04;75.81;102012.66;5090162;28;20650;-73
2024/01/31 10:48:42;;;;;;;1.37;1.37;;;;;;;5.97;74.67;101979.56;5077828;28;20210;-74
2024/01/31 10:51:10;;;;;;;1.00;1.00;;;;;;;5.53;75.05;101902.06;5074010;28;20210;-73
2024/01/31 10:53:38;;;;;;;5.13;2.73;;;;;;;6.11;74.93;102017.41;5054644;28;20666;-73
2024/01/31 10:56:06;;;;;;;1.77;1.77;;;;;;;5.68;75.20;101958.75;5086887;28;20751;-73
2024/01/31 10:58:34;;;;;;;0.90;0.90;;;;;;;6.09;75.75;101982.94;5079343;28;20190;-74
2024/01/31 11:01:04;;;;;;;1.20;1.20;;;;;;;6.21;73.64;101988.84;5088447;28;20293;-74
2024/01/31 11:03:32;;;;;;;1.50;1.40;;;;;;;6.27;72.22;101999.56;5078149;28;20627;-73
2024/01/31 11:05:59;;;;;;;1.10;1.10;;;;;;;6.28;72.38;101979.81;5089780;28;20202;-74
2024/01/31 11:08:27;;;;;;;1.43;1.43;;;;;;;6.69;93.29;101990.09;5090035;28;20197;-73
2024/01/31 11:10:54;;;;;;;1.77;1.77;;;;;;;7.11;95.86;101992.69;5089804;28;20202;-72
2024/01/31 11:13:21;;;;;;;2.57;2.00;;;;;;;7.37;93.02;101989.97;5089859;28;20212;-72
2024/01/31 11:15:49;;;;;;;1.10;1.10;;;;;;;7.37;82.38;101976.16;5089753;28;20226;-72
2024/01/31 11:18:16;;;;;;;3.00;2.70;;;;;;;7.55;75.80;101991.81;5075568;28;20282;-72
2024/01/31 11:20:46;;;;;;;0.87;0.83;;;;;;;7.73;73.47;101979.97;5054383;28;20237;-73
2024/01/31 11:23:15;;;;;;;1.53;1.53;;;;;;;6.74;67.68;101818.59;5090204;28;20230;-72
2024/01/31 11:25:42;;;;;;;0.60;0.60;;;;;;;7.37;65.02;101953.84;5090309;28;20258;-74
2024/01/31 11:28:11;;;;;;;0.80;0.80;;;;;;;7.26;64.80;101967.78;5092854;28;20235;-72